sensor_id;sensor_type;location;lat;lon;timestamp;pressure;altitude;pressure_sealevel;temperature
39959;BMP280;25639;53.634;9.880;2023-01-10T00:02:04;145404.09;;;-28.58
39959;BMP280;25639;53.634;9.880;2023-01-10T00:04:29;145406.59;;;-28.57
39959;BMP280;25639;53.634;9.880;2023-01-10T00:06:54;145405.31;;;-28.57
39959;BMP280;25639;53.634;9.880;2023-01-10T00:09:20;145395.47;;;-28.61
39959;BMP280;25639;53.634;9.880;2023-01-10T00:11:45;145393.03;;;-28.62
39959;BMP280;25639;53.634;9.880;2023-01-10T00:14:29;145374.47;;;-28.70
39959;BMP280;25639;53.634;9.880;2023-01-10T00:16:57;145393.03;;;-28.62
39959;BMP280;25639;53.634;9.880;2023-01-10T00:19:22;145411.53;;;-28.55
39959;BMP280;25639;53.634;9.880;2023-01-10T00:21:47;145393.03;;;-28.62
39959;BMP280;25639;53.634;9.880;2023-01-10T00:24:13;145389.31;;;-28.64
39959;BMP280;25639;53.634;9.880;2023-01-10T00:26:45;145401.66;;;-28.59
39959;BMP280;25639;53.634;9.880;2023-01-10T00:29:21;145411.53;;;-28.55
39959;BMP280;25639;53.634;9.880;2023-01-10T00:31:46;145406.59;;;-28.57
39959;BMP280;25639;53.634;9.880;2023-01-10T00:34:12;145388.06;;;-28.64
39959;BMP280;25639;53.634;9.880;2023-01-10T00:36:37;145407.81;;;-28.56
39959;BMP280;25639;53.634;9.880;2023-01-10T00:39:02;145386.81;;;-28.65
39959;BMP280;25639;53.634;9.880;2023-01-10T00:41:28;145380.69;;;-28.68
39959;BMP280;25639;53.634;9.880;2023-01-10T00:44:12;145393.03;;;-28.62
39959;BMP280;25639;53.634;9.880;2023-01-10T00:46:37;145363.41;;;-28.75
39959;BMP280;25639;53.634;9.880;2023-01-10T00:49:02;145368.34;;;-28.73
39959;BMP280;25639;53.634;9.880;2023-01-10T00:51:32;145363.41;;;-28.75
39959;BMP280;25639;53.634;9.880;2023-01-10T00:53:57;145341.19;;;-28.84
39959;BMP280;25639;53.634;9.880;2023-01-10T00:56:22;145347.34;;;-28.81
39959;BMP280;25639;53.634;9.880;2023-01-10T00:58:47;145339.94;;;-28.84
39959;BMP280;25639;53.634;9.880;2023-01-10T01:01:12;145353.50;;;-28.79
39959;BMP280;25639;53.634;9.880;2023-01-10T01:03:37;145331.31;;;-28.88
39959;BMP280;25639;53.634;9.880;2023-01-10T01:06:04;145314.03;;;-28.95
39959;BMP280;25639;53.634;9.880;2023-01-10T01:08:30;145314.03;;;-28.95
39959;BMP280;25639;53.634;9.880;2023-01-10T01:10:55;145281.97;;;-29.09
39959;BMP280;25639;53.634;9.880;2023-01-10T01:13:20;145277.06;;;-29.11
39959;BMP280;25639;53.634;9.880;2023-01-10T01:15:46;145267.22;;;-29.15
39959;BMP280;25639;53.634;9.880;2023-01-10T01:18:12;145264.78;;;-29.16
39959;BMP280;25639;53.634;9.880;2023-01-10T01:20:38;145252.44;;;-29.21
39959;BMP280;25639;53.634;9.880;2023-01-10T01:23:04;145272.09;;;-29.13
39959;BMP280;25639;53.634;9.880;2023-01-10T01:25:29;145253.66;;;-29.20
39959;BMP280;25639;53.634;9.880;2023-01-10T01:27:55;145256.13;;;-29.19
39959;BMP280;25639;53.634;9.880;2023-01-10T01:30:20;145263.50;;;-29.16
39959;BMP280;25639;53.634;9.880;2023-01-10T01:32:46;145262.28;;;-29.17
39959;BMP280;25639;53.634;9.880;2023-01-10T01:35:11;145245.00;;;-29.24
39959;BMP280;25639;53.634;9.880;2023-01-10T01:37:38;145268.47;;;-29.14
39959;BMP280;25639;53.634;9.880;2023-01-10T01:40:03;145251.22;;;-29.21
39959;BMP280;25639;53.634;9.880;2023-01-10T01:42:30;145264.78;;;-29.16
39959;BMP280;25639;53.634;9.880;2023-01-10T01:47:38;145261.06;;;-29.17
39959;BMP280;25639;53.634;9.880;2023-01-10T01:50:13;145265.97;;;-29.15
39959;BMP280;25639;53.634;9.880;2023-01-10T01:52:39;145272.09;;;-29.13
39959;BMP280;25639;53.634;9.880;2023-01-10T01:55:04;145280.72;;;-29.09
39959;BMP280;25639;53.634;9.880;2023-01-10T01:57:30;145240.09;;;-29.26
39959;BMP280;25639;53.634;9.880;2023-01-10T01:59:56;145264.78;;;-29.16
39959;BMP280;25639;53.634;9.880;2023-01-10T02:02:23;145231.47;;;-29.30
39959;BMP280;25639;53.634;9.880;2023-01-10T02:04:51;145258.56;;;-29.18
39959;BMP280;25639;53.634;9.880;2023-01-10T02:07:17;145256.13;;;-29.19
39959;BMP280;25639;53.634;9.880;2023-01-10T02:09:50;145272.09;;;-29.13
39959;BMP280;25639;53.634;9.880;2023-01-10T02:12:17;145274.56;;;-29.12
39959;BMP280;25639;53.634;9.880;2023-01-10T02:14:43;145299.25;;;-29.01
39959;BMP280;25639;53.634;9.880;2023-01-10T02:17:09;145274.56;;;-29.12
39959;BMP280;25639;53.634;9.880;2023-01-10T02:24:45;145246.22;;;-29.23
39959;BMP280;25639;53.634;9.880;2023-01-10T02:27:26;145252.44;;;-29.21
39959;BMP280;25639;53.634;9.880;2023-01-10T02:30:10;145257.34;;;-29.19
39959;BMP280;25639;53.634;9.880;2023-01-10T02:35:19;145237.59;;;-29.27
39959;BMP280;25639;53.634;9.880;2023-01-10T02:38:08;145263.50;;;-29.16
39959;BMP280;25639;53.634;9.880;2023-01-10T02:43:05;145237.59;;;-29.27
39959;BMP280;25639;53.634;9.880;2023-01-10T02:45:34;145258.56;;;-29.18
39959;BMP280;25639;53.634;9.880;2023-01-10T02:48:01;145268.47;;;-29.14
39959;BMP280;25639;53.634;9.880;2023-01-10T02:52:55;145242.56;;;-29.25
39959;BMP280;25639;53.634;9.880;2023-01-10T02:55:22;145264.78;;;-29.16
39959;BMP280;25639;53.634;9.880;2023-01-10T02:57:57;145221.59;;;-29.34
39959;BMP280;25639;53.634;9.880;2023-01-10T03:03:15;145205.56;;;-29.40
39959;BMP280;25639;53.634;9.880;2023-01-10T03:05:53;145210.50;;;-29.38
39959;BMP280;25639;53.634;9.880;2023-01-10T03:11:05;145222.81;;;-29.33
39959;BMP280;25639;53.634;9.880;2023-01-10T03:16:29;145209.28;;;-29.39
39959;BMP280;25639;53.634;9.880;2023-01-10T03:19:03;145204.34;;;-29.41
39959;BMP280;25639;53.634;9.880;2023-01-10T03:21:29;145221.59;;;-29.34
39959;BMP280;25639;53.634;9.880;2023-01-10T03:23:57;145217.91;;;-29.35
39959;BMP280;25639;53.634;9.880;2023-01-10T03:26:34;145194.44;;;-29.45
39959;BMP280;25639;53.634;9.880;2023-01-10T03:29:06;145199.41;;;-29.43
39959;BMP280;25639;53.634;9.880;2023-01-10T03:31:35;145200.63;;;-29.42
39959;BMP280;25639;53.634;9.880;2023-01-10T03:34:03;145174.75;;;-29.53
39959;BMP280;25639;53.634;9.880;2023-01-10T03:38:56;145145.16;;;-29.66
39959;BMP280;25639;53.634;9.880;2023-01-10T03:43:58;145102.06;;;-29.84
39959;BMP280;25639;53.634;9.880;2023-01-10T03:46:49;145109.47;;;-29.80
39959;BMP280;25639;53.634;9.880;2023-01-10T03:49:16;145073.69;;;-29.95
39959;BMP280;25639;53.634;9.880;2023-01-10T03:51:43;145056.47;;;-30.03
39959;BMP280;25639;53.634;9.880;2023-01-10T03:54:08;145044.13;;;-30.08
39959;BMP280;25639;53.634;9.880;2023-01-10T03:56:43;145028.16;;;-30.14
39959;BMP280;25639;53.634;9.880;2023-01-10T03:59:09;145035.50;;;-30.11
39959;BMP280;25639;53.634;9.880;2023-01-10T04:01:34;145026.88;;;-30.15
39959;BMP280;25639;53.634;9.880;2023-01-10T04:03:59;145017.03;;;-30.19
39959;BMP280;25639;53.634;9.880;2023-01-10T04:06:24;145030.59;;;-30.13
39959;BMP280;25639;53.634;9.880;2023-01-10T04:08:49;145029.38;;;-30.14
39959;BMP280;25639;53.634;9.880;2023-01-10T04:11:15;145037.97;;;-30.10
39959;BMP280;25639;53.634;9.880;2023-01-10T04:13:40;145026.88;;;-30.15
39959;BMP280;25639;53.634;9.880;2023-01-10T04:16:06;145019.53;;;-30.18
39959;BMP280;25639;53.634;9.880;2023-01-10T04:18:31;145036.78;;;-30.11
39959;BMP280;25639;53.634;9.880;2023-01-10T04:20:57;145047.84;;;-30.06
39959;BMP280;25639;53.634;9.880;2023-01-10T04:23:22;145044.13;;;-30.08
39959;BMP280;25639;53.634;9.880;2023-01-10T04:25:47;145065.06;;;-29.99
39959;BMP280;25639;53.634;9.880;2023-01-10T04:28:12;145031.81;;;-30.13
39959;BMP280;25639;53.634;9.880;2023-01-10T04:30:37;145071.28;;;-29.96
39959;BMP280;25639;53.634;9.880;2023-01-10T04:33:02;145026.88;;;-30.15
39959;BMP280;25639;53.634;9.880;2023-01-10T04:35:28;145047.84;;;-30.06
39959;BMP280;25639;53.634;9.880;2023-01-10T04:37:53;145072.50;;;-29.96
39959;BMP280;25639;53.634;9.880;2023-01-10T04:40:18;145067.56;;;-29.98
39959;BMP280;25639;53.634;9.880;2023-01-10T04:42:47;145061.38;;;-30.00
39959;BMP280;25639;53.634;9.880;2023-01-10T04:45:12;145074.97;;;-29.95
39959;BMP280;25639;53.634;9.880;2023-01-10T04:47:41;145073.69;;;-29.95
39959;BMP280;25639;53.634;9.880;2023-01-10T04:50:06;145084.81;;;-29.91
39959;BMP280;25639;53.634;9.880;2023-01-10T04:52:32;145076.19;;;-29.94
39959;BMP280;25639;53.634;9.880;2023-01-10T04:54:57;145083.59;;;-29.91
39959;BMP280;25639;53.634;9.880;2023-01-10T04:57:22;145088.53;;;-29.89
39959;BMP280;25639;53.634;9.880;2023-01-10T04:59:47;145107.00;;;-29.81
39959;BMP280;25639;53.634;9.880;2023-01-10T05:02:12;145083.59;;;-29.91
39959;BMP280;25639;53.634;9.880;2023-01-10T05:04:37;145102.06;;;-29.84
39959;BMP280;25639;53.634;9.880;2023-01-10T05:07:03;145120.53;;;-29.76
39959;BMP280;25639;53.634;9.880;2023-01-10T05:09:28;145110.69;;;-29.80
39959;BMP280;25639;53.634;9.880;2023-01-10T05:11:53;145103.28;;;-29.83
39959;BMP280;25639;53.634;9.880;2023-01-10T05:14:19;145143.94;;;-29.66
39959;BMP280;25639;53.634;9.880;2023-01-10T05:16:44;145147.59;;;-29.65
39959;BMP280;25639;53.634;9.880;2023-01-10T05:19:09;145126.69;;;-29.73
39959;BMP280;25639;53.634;9.880;2023-01-10T05:21:34;145153.78;;;-29.62
39959;BMP280;25639;53.634;9.880;2023-01-10T05:23:59;145142.69;;;-29.67
39959;BMP280;25639;53.634;9.880;2023-01-10T05:26:25;145115.63;;;-29.78
39959;BMP280;25639;53.634;9.880;2023-01-10T05:28:50;145137.75;;;-29.69
39959;BMP280;25639;53.634;9.880;2023-01-10T05:31:16;145121.75;;;-29.75
39959;BMP280;25639;53.634;9.880;2023-01-10T05:33:48;145115.63;;;-29.78
39959;BMP280;25639;53.634;9.880;2023-01-10T05:36:13;145140.25;;;-29.68
39959;BMP280;25639;53.634;9.880;2023-01-10T05:38:39;145163.63;;;-29.58
39959;BMP280;25639;53.634;9.880;2023-01-10T05:41:04;145145.16;;;-29.66
39959;BMP280;25639;53.634;9.880;2023-01-10T05:43:29;145130.34;;;-29.72
39959;BMP280;25639;53.634;9.880;2023-01-10T05:45:55;145127.91;;;-29.73
39959;BMP280;25639;53.634;9.880;2023-01-10T05:48:20;145095.88;;;-29.86
39959;BMP280;25639;53.634;9.880;2023-01-10T05:50:46;145097.16;;;-29.86
39959;BMP280;25639;53.634;9.880;2023-01-10T05:53:13;145088.53;;;-29.89
39959;BMP280;25639;53.634;9.880;2023-01-10T05:55:38;145083.59;;;-29.91
39959;BMP280;25639;53.634;9.880;2023-01-10T05:58:03;145095.88;;;-29.86
39959;BMP280;25639;53.634;9.880;2023-01-10T06:00:28;145092.22;;;-29.88
39959;BMP280;25639;53.634;9.880;2023-01-10T06:02:54;145079.91;;;-29.93
39959;BMP280;25639;53.634;9.880;2023-01-10T06:05:19;145055.25;;;-30.03
39959;BMP280;25639;53.634;9.880;2023-01-10T06:07:44;145035.50;;;-30.11
39959;BMP280;25639;53.634;9.880;2023-01-10T06:10:09;145039.22;;;-30.10
39959;BMP280;25639;53.634;9.880;2023-01-10T06:12:37;145021.97;;;-30.17
39959;BMP280;25639;53.634;9.880;2023-01-10T06:15:02;145005.94;;;-30.24
39959;BMP280;25639;53.634;9.880;2023-01-10T06:17:28;145013.34;;;-30.20
39959;BMP280;25639;53.634;9.880;2023-01-10T06:19:53;145008.41;;;-30.23
39959;BMP280;25639;53.634;9.880;2023-01-10T06:22:18;144988.69;;;-30.31
39959;BMP280;25639;53.634;9.880;2023-01-10T06:24:44;144999.78;;;-30.26
39959;BMP280;25639;53.634;9.880;2023-01-10T06:27:09;145004.72;;;-30.24
39959;BMP280;25639;53.634;9.880;2023-01-10T06:29:34;144972.75;;;-30.37
39959;BMP280;25639;53.634;9.880;2023-01-10T06:31:59;144991.16;;;-30.30
39959;BMP280;25639;53.634;9.880;2023-01-10T06:34:24;144983.81;;;-30.33
39959;BMP280;25639;53.634;9.880;2023-01-10T06:36:50;144985.03;;;-30.32
39959;BMP280;25639;53.634;9.880;2023-01-10T06:39:15;144994.88;;;-30.28
39959;BMP280;25639;53.634;9.880;2023-01-10T06:41:40;144982.59;;;-30.33
39959;BMP280;25639;53.634;9.880;2023-01-10T06:44:05;144991.16;;;-30.30
39959;BMP280;25639;53.634;9.880;2023-01-10T06:46:30;144985.03;;;-30.32
39959;BMP280;25639;53.634;9.880;2023-01-10T06:48:56;144982.59;;;-30.33
39959;BMP280;25639;53.634;9.880;2023-01-10T06:51:21;144972.75;;;-30.37
39959;BMP280;25639;53.634;9.880;2023-01-10T06:53:46;144953.03;;;-30.46
39959;BMP280;25639;53.634;9.880;2023-01-10T06:56:11;144953.03;;;-30.46
39959;BMP280;25639;53.634;9.880;2023-01-10T06:58:37;144930.88;;;-30.55
39959;BMP280;25639;53.634;9.880;2023-01-10T07:01:06;144918.53;;;-30.60
39959;BMP280;25639;53.634;9.880;2023-01-10T07:03:36;144887.75;;;-30.73
39959;BMP280;25639;53.634;9.880;2023-01-10T07:06:01;144913.63;;;-30.62
39959;BMP280;25639;53.634;9.880;2023-01-10T07:08:27;144914.84;;;-30.62
39959;BMP280;25639;53.634;9.880;2023-01-10T07:10:52;144914.84;;;-30.62
39959;BMP280;25639;53.634;9.880;2023-01-10T07:13:18;144919.75;;;-30.59
39959;BMP280;25639;53.634;9.880;2023-01-10T07:15:44;144907.44;;;-30.65
39959;BMP280;25639;53.634;9.880;2023-01-10T07:18:09;144924.69;;;-30.57
39959;BMP280;25639;53.634;9.880;2023-01-10T07:20:34;144924.69;;;-30.57
39959;BMP280;25639;53.634;9.880;2023-01-10T07:22:59;144932.09;;;-30.54
39959;BMP280;25639;53.634;9.880;2023-01-10T07:25:25;144941.91;;;-30.50
39959;BMP280;25639;53.634;9.880;2023-01-10T07:27:51;144964.13;;;-30.41
39959;BMP280;25639;53.634;9.880;2023-01-10T07:30:19;144959.22;;;-30.43
39959;BMP280;25639;53.634;9.880;2023-01-10T07:32:44;144940.69;;;-30.51
39959;BMP280;25639;53.634;9.880;2023-01-10T07:35:10;144929.66;;;-30.55
39959;BMP280;25639;53.634;9.880;2023-01-10T07:37:35;144921.03;;;-30.59
39959;BMP280;25639;53.634;9.880;2023-01-10T07:40:00;144893.91;;;-30.70
39959;BMP280;25639;53.634;9.880;2023-01-10T07:42:25;144900.09;;;-30.68
39959;BMP280;25639;53.634;9.880;2023-01-10T07:44:50;144875.44;;;-30.78
39959;BMP280;25639;53.634;9.880;2023-01-10T07:47:16;144911.13;;;-30.63
39959;BMP280;25639;53.634;9.880;2023-01-10T07:49:41;144923.47;;;-30.58
39959;BMP280;25639;53.634;9.880;2023-01-10T07:52:06;144914.84;;;-30.62
39959;BMP280;25639;53.634;9.880;2023-01-10T07:54:33;144934.56;;;-30.53
39959;BMP280;25639;53.634;9.880;2023-01-10T07:56:58;144935.78;;;-30.53
39959;BMP280;25639;53.634;9.880;2023-01-10T07:59:23;144925.94;;;-30.57
39959;BMP280;25639;53.634;9.880;2023-01-10T08:01:48;144950.59;;;-30.47
39959;BMP280;25639;53.634;9.880;2023-01-10T08:04:13;144976.44;;;-30.36
39959;BMP280;25639;53.634;9.880;2023-01-10T08:06:38;144993.66;;;-30.29
39959;BMP280;25639;53.634;9.880;2023-01-10T08:09:04;144986.25;;;-30.32
39959;BMP280;25639;53.634;9.880;2023-01-10T08:11:29;144973.97;;;-30.37
39959;BMP280;25639;53.634;9.880;2023-01-10T08:13:55;145003.50;;;-30.25
39959;BMP280;25639;53.634;9.880;2023-01-10T08:16:20;144991.16;;;-30.30
39959;BMP280;25639;53.634;9.880;2023-01-10T08:18:45;145005.94;;;-30.24
39959;BMP280;25639;53.634;9.880;2023-01-10T08:21:10;145001.00;;;-30.26
39959;BMP280;25639;53.634;9.880;2023-01-10T08:23:36;144988.69;;;-30.31
39959;BMP280;25639;53.634;9.880;2023-01-10T08:26:01;145010.91;;;-30.22
39959;BMP280;25639;53.634;9.880;2023-01-10T08:28:27;145036.78;;;-30.11
39959;BMP280;25639;53.634;9.880;2023-01-10T08:30:52;145054.00;;;-30.04
39959;BMP280;25639;53.634;9.880;2023-01-10T08:33:19;145066.31;;;-29.98
39959;BMP280;25639;53.634;9.880;2023-01-10T08:35:45;145081.13;;;-29.92
39959;BMP280;25639;53.634;9.880;2023-01-10T08:38:10;145090.97;;;-29.88
39959;BMP280;25639;53.634;9.880;2023-01-10T08:40:35;145090.97;;;-29.88
39959;BMP280;25639;53.634;9.880;2023-01-10T08:43:02;145081.13;;;-29.92
39959;BMP280;25639;53.634;9.880;2023-01-10T08:45:28;145094.66;;;-29.87
39959;BMP280;25639;53.634;9.880;2023-01-10T08:47:53;145103.28;;;-29.83
39959;BMP280;25639;53.634;9.880;2023-01-10T08:50:18;145114.41;;;-29.78
39959;BMP280;25639;53.634;9.880;2023-01-10T08:52:44;145127.91;;;-29.73
39959;BMP280;25639;53.634;9.880;2023-01-10T08:55:09;145151.31;;;-29.63
39959;BMP280;25639;53.634;9.880;2023-01-10T08:57:34;145143.94;;;-29.66
39959;BMP280;25639;53.634;9.880;2023-01-10T08:59:59;145158.72;;;-29.60
39959;BMP280;25639;53.634;9.880;2023-01-10T09:02:24;145156.22;;;-29.61
39959;BMP280;25639;53.634;9.880;2023-01-10T09:04:50;145178.47;;;-29.52
39959;BMP280;25639;53.634;9.880;2023-01-10T09:07:15;145193.22;;;-29.46
39959;BMP280;25639;53.634;9.880;2023-01-10T09:09:40;145171.03;;;-29.55
39959;BMP280;25639;53.634;9.880;2023-01-10T09:12:05;145172.25;;;-29.54
39959;BMP280;25639;53.634;9.880;2023-01-10T09:14:50;145177.19;;;-29.52
39959;BMP280;25639;53.634;9.880;2023-01-10T09:17:15;145177.19;;;-29.52
39959;BMP280;25639;53.634;9.880;2023-01-10T09:19:41;145192.00;;;-29.46
39959;BMP280;25639;53.634;9.880;2023-01-10T09:22:06;145200.63;;;-29.42
39959;BMP280;25639;53.634;9.880;2023-01-10T09:24:31;145222.81;;;-29.33
39959;BMP280;25639;53.634;9.880;2023-01-10T09:26:56;145237.59;;;-29.27
39959;BMP280;25639;53.634;9.880;2023-01-10T09:29:21;145238.88;;;-29.27
39959;BMP280;25639;53.634;9.880;2023-01-10T09:31:47;145270.88;;;-29.13
39959;BMP280;25639;53.634;9.880;2023-01-10T09:34:12;145259.84;;;-29.18
39959;BMP280;25639;53.634;9.880;2023-01-10T09:36:37;145275.78;;;-29.11
39959;BMP280;25639;53.634;9.880;2023-01-10T09:39:02;145288.13;;;-29.06
39959;BMP280;25639;53.634;9.880;2023-01-10T09:44:17;145264.78;;;-29.16
39959;BMP280;25639;53.634;9.880;2023-01-10T09:51:55;145306.63;;;-28.98
39959;BMP280;25639;53.634;9.880;2023-01-10T09:56:46;145286.91;;;-29.07
39959;BMP280;25639;53.634;9.880;2023-01-10T09:59:16;145264.78;;;-29.16
39959;BMP280;25639;53.634;9.880;2023-01-10T10:01:42;145295.53;;;-29.03
39959;BMP280;25639;53.634;9.880;2023-01-10T10:04:42;145280.72;;;-29.09
39959;BMP280;25639;53.634;9.880;2023-01-10T10:07:00;145285.69;;;-29.07
39959;BMP280;25639;53.634;9.880;2023-01-10T10:09:30;145299.25;;;-29.01
39959;BMP280;25639;53.634;9.880;2023-01-10T10:14:29;145284.44;;;-29.08
39959;BMP280;25639;53.634;9.880;2023-01-10T10:17:12;145281.97;;;-29.09
39959;BMP280;25639;53.634;9.880;2023-01-10T10:22:25;145280.72;;;-29.09
39959;BMP280;25639;53.634;9.880;2023-01-10T10:25:06;145280.72;;;-29.09
39959;BMP280;25639;53.634;9.880;2023-01-10T10:27:52;145269.69;;;-29.14
39959;BMP280;25639;53.634;9.880;2023-01-10T10:30:27;145252.44;;;-29.21
39959;BMP280;25639;53.634;9.880;2023-01-10T10:37:46;145268.47;;;-29.14
39959;BMP280;25639;53.634;9.880;2023-01-10T10:42:40;145301.69;;;-29.00
39959;BMP280;25639;53.634;9.880;2023-01-10T10:47:45;145301.69;;;-29.00
39959;BMP280;25639;53.634;9.880;2023-01-10T10:52:39;145311.59;;;-28.96
39959;BMP280;25639;53.634;9.880;2023-01-10T10:55:05;145337.50;;;-28.85
39959;BMP280;25639;53.634;9.880;2023-01-10T10:57:32;145339.94;;;-28.84
39959;BMP280;25639;53.634;9.880;2023-01-10T10:59:59;145352.28;;;-28.79
39959;BMP280;25639;53.634;9.880;2023-01-10T11:02:29;145356.00;;;-28.78
39959;BMP280;25639;53.634;9.880;2023-01-10T11:04:59;145358.47;;;-28.77
39959;BMP280;25639;53.634;9.880;2023-01-10T11:07:27;145379.41;;;-28.68
39959;BMP280;25639;53.634;9.880;2023-01-10T11:09:53;145374.47;;;-28.70
39959;BMP280;25639;53.634;9.880;2023-01-10T11:12:30;145352.28;;;-28.79
39959;BMP280;25639;53.634;9.880;2023-01-10T11:14:56;145346.13;;;-28.82
39959;BMP280;25639;53.634;9.880;2023-01-10T11:17:27;145352.28;;;-28.79
39959;BMP280;25639;53.634;9.880;2023-01-10T11:19:54;145346.13;;;-28.82
39959;BMP280;25639;53.634;9.880;2023-01-10T11:22:19;145351.06;;;-28.80
39959;BMP280;25639;53.634;9.880;2023-01-10T11:24:54;145338.72;;;-28.85
39959;BMP280;25639;53.634;9.880;2023-01-10T11:27:30;145348.56;;;-28.81
39959;BMP280;25639;53.634;9.880;2023-01-10T11:30:00;145356.00;;;-28.78
39959;BMP280;25639;53.634;9.880;2023-01-10T11:32:33;145359.69;;;-28.76
39959;BMP280;25639;53.634;9.880;2023-01-10T11:35:06;145374.47;;;-28.70
39959;BMP280;25639;53.634;9.880;2023-01-10T11:37:33;145353.50;;;-28.79
39959;BMP280;25639;53.634;9.880;2023-01-10T11:42:33;145376.97;;;-28.69
39959;BMP280;25639;53.634;9.880;2023-01-10T11:47:46;145384.38;;;-28.66
39959;BMP280;25639;53.634;9.880;2023-01-10T11:50:16;145372.03;;;-28.71
39959;BMP280;25639;53.634;9.880;2023-01-10T11:52:43;145369.56;;;-28.72
39959;BMP280;25639;53.634;9.880;2023-01-10T11:55:16;145368.34;;;-28.73
39959;BMP280;25639;53.634;9.880;2023-01-10T11:57:42;145401.66;;;-28.59
39959;BMP280;25639;53.634;9.880;2023-01-10T12:00:08;145402.88;;;-28.58
39959;BMP280;25639;53.634;9.880;2023-01-10T12:02:34;145383.13;;;-28.67
39959;BMP280;25639;53.634;9.880;2023-01-10T12:05:00;145399.19;;;-28.60
39959;BMP280;25639;53.634;9.880;2023-01-10T12:07:26;145410.31;;;-28.55
39959;BMP280;25639;53.634;9.880;2023-01-10T12:12:21;145405.31;;;-28.57
39959;BMP280;25639;53.634;9.880;2023-01-10T12:14:46;145409.03;;;-28.56
39959;BMP280;25639;53.634;9.880;2023-01-10T12:17:17;145396.69;;;-28.61
39959;BMP280;25639;53.634;9.880;2023-01-10T12:19:44;145384.38;;;-28.66
39959;BMP280;25639;53.634;9.880;2023-01-10T12:22:09;145417.63;;;-28.52
39959;BMP280;25639;53.634;9.880;2023-01-10T12:24:36;145454.66;;;-28.37
39959;BMP280;25639;53.634;9.880;2023-01-10T12:27:04;145457.16;;;-28.36
39959;BMP280;25639;53.634;9.880;2023-01-10T12:29:35;145438.59;;;-28.43
39959;BMP280;25639;53.634;9.880;2023-01-10T12:32:03;145462.09;;;-28.34
39959;BMP280;25639;53.634;9.880;2023-01-10T12:34:40;145465.78;;;-28.32
39959;BMP280;25639;53.634;9.880;2023-01-10T12:39:43;145455.88;;;-28.36
39959;BMP280;25639;53.634;9.880;2023-01-10T12:42:13;145474.44;;;-28.29
39959;BMP280;25639;53.634;9.880;2023-01-10T12:47:36;145492.94;;;-28.21
39959;BMP280;25639;53.634;9.880;2023-01-10T12:52:39;145480.59;;;-28.26
39959;BMP280;25639;53.634;9.880;2023-01-10T12:55:18;145459.59;;;-28.35
39959;BMP280;25639;53.634;9.880;2023-01-10T12:57:49;145489.22;;;-28.22
39959;BMP280;25639;53.634;9.880;2023-01-10T13:02:42;145474.44;;;-28.29
39959;BMP280;25639;53.634;9.880;2023-01-10T13:05:17;145481.81;;;-28.25
39959;BMP280;25639;53.634;9.880;2023-01-10T13:07:43;145481.81;;;-28.25
39959;BMP280;25639;53.634;9.880;2023-01-10T13:10:12;145469.47;;;-28.31
39959;BMP280;25639;53.634;9.880;2023-01-10T13:12:39;145496.66;;;-28.19
39959;BMP280;25639;53.634;9.880;2023-01-10T13:15:09;145513.94;;;-28.12
39959;BMP280;25639;53.634;9.880;2023-01-10T13:17:41;145548.50;;;-27.98
39959;BMP280;25639;53.634;9.880;2023-01-10T13:22:39;145590.44;;;-27.80
39959;BMP280;25639;53.634;9.880;2023-01-10T13:25:05;145570.66;;;-27.88
39959;BMP280;25639;53.634;9.880;2023-01-10T13:27:42;145573.13;;;-27.87
39959;BMP280;25639;53.634;9.880;2023-01-10T13:30:21;145537.38;;;-28.02
39959;BMP280;25639;53.634;9.880;2023-01-10T13:32:52;145529.94;;;-28.05
39959;BMP280;25639;53.634;9.880;2023-01-10T13:35:19;145517.66;;;-28.11
39959;BMP280;25639;53.634;9.880;2023-01-10T13:37:49;145515.16;;;-28.12
39959;BMP280;25639;53.634;9.880;2023-01-10T13:40:20;145501.56;;;-28.17
39959;BMP280;25639;53.634;9.880;2023-01-10T13:42:46;145504.03;;;-28.16
39959;BMP280;25639;53.634;9.880;2023-01-10T13:45:43;145512.66;;;-28.13
39959;BMP280;25639;53.634;9.880;2023-01-10T13:48:41;145520.09;;;-28.10
39959;BMP280;25639;53.634;9.880;2023-01-10T13:51:13;145513.94;;;-28.12
39959;BMP280;25639;53.634;9.880;2023-01-10T13:53:41;145511.44;;;-28.13
39959;BMP280;25639;53.634;9.880;2023-01-10T13:56:26;145497.88;;;-28.19
39959;BMP280;25639;53.634;9.880;2023-01-10T13:58:52;145500.34;;;-28.18
39959;BMP280;25639;53.634;9.880;2023-01-10T14:01:37;145512.66;;;-28.13
39959;BMP280;25639;53.634;9.880;2023-01-10T14:06:50;145509.00;;;-28.14
39959;BMP280;25639;53.634;9.880;2023-01-10T14:14:12;145500.34;;;-28.18
39959;BMP280;25639;53.634;9.880;2023-01-10T14:16:42;145500.34;;;-28.18
39959;BMP280;25639;53.634;9.880;2023-01-10T14:19:21;145497.88;;;-28.19
39959;BMP280;25639;53.634;9.880;2023-01-10T14:21:49;145459.59;;;-28.35
39959;BMP280;25639;53.634;9.880;2023-01-10T14:24:23;145444.81;;;-28.41
39959;BMP280;25639;53.634;9.880;2023-01-10T14:26:50;145448.47;;;-28.39
39959;BMP280;25639;53.634;9.880;2023-01-10T14:29:16;145396.69;;;-28.61
39959;BMP280;25639;53.634;9.880;2023-01-10T14:31:46;145412.75;;;-28.54
39959;BMP280;25639;53.634;9.880;2023-01-10T14:34:18;145422.56;;;-28.50
39959;BMP280;25639;53.634;9.880;2023-01-10T14:36:52;145374.47;;;-28.70
39959;BMP280;25639;53.634;9.880;2023-01-10T14:39:20;145390.53;;;-28.63
39959;BMP280;25639;53.634;9.880;2023-01-10T14:41:47;145407.81;;;-28.56
39959;BMP280;25639;53.634;9.880;2023-01-10T14:44:28;145425.03;;;-28.49
39959;BMP280;25639;53.634;9.880;2023-01-10T14:46:55;145413.97;;;-28.54
39959;BMP280;25639;53.634;9.880;2023-01-10T14:49:22;145396.69;;;-28.61
39959;BMP280;25639;53.634;9.880;2023-01-10T14:51:48;145385.59;;;-28.65
39959;BMP280;25639;53.634;9.880;2023-01-10T14:54:15;145370.78;;;-28.72
39959;BMP280;25639;53.634;9.880;2023-01-10T14:56:42;145389.31;;;-28.64
39959;BMP280;25639;53.634;9.880;2023-01-10T15:01:53;145357.22;;;-28.77
39959;BMP280;25639;53.634;9.880;2023-01-10T15:04:19;145369.56;;;-28.72
39959;BMP280;25639;53.634;9.880;2023-01-10T15:06:49;145383.13;;;-28.67
39959;BMP280;25639;53.634;9.880;2023-01-10T15:09:15;145356.00;;;-28.78
39959;BMP280;25639;53.634;9.880;2023-01-10T15:11:40;145356.00;;;-28.78
39959;BMP280;25639;53.634;9.880;2023-01-10T15:14:05;145368.34;;;-28.73
39959;BMP280;25639;53.634;9.880;2023-01-10T15:16:32;145358.47;;;-28.77